createdAt,value
2023-06-11T00:01:18.227Z,86.80
2023-06-11T00:03:48.093Z,87.20
2023-06-11T00:06:18.876Z,88.10
2023-06-11T00:08:45.523Z,88.80
2023-06-11T00:11:12.124Z,89.40
2023-06-11T00:13:38.637Z,89.70
2023-06-11T00:16:05.196Z,89.80
2023-06-11T00:18:31.733Z,89.90
2023-06-11T00:20:59.387Z,90.00
2023-06-11T00:23:25.967Z,90.10
2023-06-11T00:25:55.554Z,90.20
2023-06-11T00:28:22.097Z,90.20
2023-06-11T00:30:48.637Z,90.30
2023-06-11T00:33:15.480Z,90.40
2023-06-11T00:35:42.027Z,90.40
2023-06-11T00:38:08.644Z,90.50
2023-06-11T00:40:35.322Z,90.60
2023-06-11T00:43:03.916Z,90.50
2023-06-11T00:45:30.538Z,90.60
2023-06-11T00:47:57.593Z,90.60
2023-06-11T00:50:24.438Z,90.70
2023-06-11T00:52:50.992Z,90.40
2023-06-11T00:55:18.942Z,90.50
2023-06-11T00:57:45.524Z,90.50
2023-06-11T01:00:13.813Z,90.50
2023-06-11T01:02:41.218Z,90.50
2023-06-11T01:05:08.139Z,90.40
2023-06-11T01:07:35.264Z,90.40
2023-06-11T01:10:01.814Z,90.30
2023-06-11T01:12:28.343Z,90.40
2023-06-11T01:14:54.976Z,90.40
2023-06-11T01:17:23.545Z,90.30
2023-06-11T01:19:53.782Z,90.40
2023-06-11T01:22:20.312Z,90.30
2023-06-11T01:24:46.898Z,90.40
2023-06-11T01:27:14.177Z,90.30
2023-06-11T01:29:46.285Z,90.40
2023-06-11T01:32:12.810Z,90.40
2023-06-11T01:34:42.427Z,90.50
2023-06-11T01:37:13.259Z,90.50
2023-06-11T01:39:39.839Z,90.50
2023-06-11T01:42:06.716Z,90.50
2023-06-11T01:44:33.410Z,90.50
2023-06-11T01:47:00.153Z,90.60
2023-06-11T01:49:26.823Z,90.60
2023-06-11T01:51:53.382Z,90.60
2023-06-11T01:54:19.933Z,90.70
2023-06-11T01:56:46.499Z,90.60
2023-06-11T01:59:19.058Z,90.60
2023-06-11T02:01:45.754Z,90.60
2023-06-11T02:04:12.396Z,90.60
2023-06-11T02:06:39.007Z,90.70
2023-06-11T02:09:05.492Z,90.70
2023-06-11T02:11:32.108Z,90.70
2023-06-11T02:13:58.618Z,90.80
2023-06-11T02:16:25.432Z,90.80
2023-06-11T02:18:51.945Z,90.80
2023-06-11T02:21:18.576Z,90.90
2023-06-11T02:23:45.152Z,90.90
2023-06-11T02:26:11.752Z,90.90
2023-06-11T02:28:38.283Z,90.90
2023-06-11T02:31:04.794Z,91.00
2023-06-11T02:33:31.364Z,91.10
2023-06-11T02:35:57.890Z,91.10
2023-06-11T02:38:24.419Z,91.20
2023-06-11T02:40:50.947Z,91.20
2023-06-11T02:43:17.461Z,91.20
2023-06-11T02:45:44.012Z,91.20
2023-06-11T02:48:10.572Z,91.30
2023-06-11T02:50:37.079Z,91.30
2023-06-11T02:53:03.600Z,91.40
2023-06-11T02:55:30.251Z,91.50
2023-06-11T02:57:56.831Z,91.40
2023-06-11T03:00:23.878Z,91.60
2023-06-11T03:02:50.886Z,91.60
2023-06-11T03:05:17.442Z,91.70
2023-06-11T03:07:44.012Z,91.70
2023-06-11T03:10:10.572Z,91.80
2023-06-11T03:12:37.123Z,91.80
2023-06-11T03:15:03.746Z,91.80
2023-06-11T03:17:30.331Z,91.80
2023-06-11T03:19:56.928Z,91.70
2023-06-11T03:22:23.655Z,91.80
2023-06-11T03:24:50.334Z,91.70
2023-06-11T03:27:16.848Z,91.80
2023-06-11T03:29:43.401Z,91.80
2023-06-11T03:32:13.011Z,91.80
2023-06-11T03:34:39.918Z,91.90
2023-06-11T03:37:06.545Z,92.00
2023-06-11T03:39:33.124Z,92.10
2023-06-11T03:41:59.625Z,92.20
2023-06-11T03:44:26.257Z,92.20
2023-06-11T03:46:52.795Z,92.30
2023-06-11T03:49:21.956Z,92.50
2023-06-11T03:51:48.476Z,92.40
2023-06-11T03:54:15.027Z,92.40
2023-06-11T03:56:41.613Z,92.50
2023-06-11T03:59:08.225Z,92.40
2023-06-11T04:01:34.760Z,92.50
2023-06-11T04:04:01.432Z,92.60
2023-06-11T04:06:28.935Z,92.60
2023-06-11T04:08:55.583Z,92.70
2023-06-11T04:11:22.161Z,92.70
2023-06-11T04:13:51.065Z,92.70
2023-06-11T04:16:18.385Z,92.80
2023-06-11T04:18:44.950Z,92.80
2023-06-11T04:21:11.517Z,92.70
2023-06-11T04:23:38.069Z,92.80
2023-06-11T04:26:05.007Z,92.80
2023-06-11T04:28:31.655Z,92.60
2023-06-11T04:30:59.089Z,92.60
2023-06-11T04:33:37.339Z,92.60
2023-06-11T04:36:06.209Z,92.40
2023-06-11T04:38:33.021Z,92.40
2023-06-11T04:40:59.546Z,92.40
2023-06-11T04:43:26.785Z,92.30
2023-06-11T04:46:00.464Z,92.10
2023-06-11T04:48:28.344Z,92.20
2023-06-11T04:50:55.099Z,92.10
2023-06-11T04:53:28.615Z,92.00
2023-06-11T04:55:58.672Z,92.20
2023-06-11T04:58:25.190Z,92.10
2023-06-11T05:00:51.752Z,92.10
2023-06-11T05:03:19.604Z,92.10
2023-06-11T05:05:51.133Z,91.90
2023-06-11T05:08:18.376Z,92.10
2023-06-11T05:10:45.005Z,92.20
2023-06-11T05:13:11.687Z,91.80
2023-06-11T05:15:38.434Z,91.90
2023-06-11T05:18:05.105Z,92.20
2023-06-11T05:20:32.024Z,91.80
2023-06-11T05:23:00.291Z,91.80
2023-06-11T05:25:30.231Z,91.50
2023-06-11T05:27:57.450Z,91.70
2023-06-11T05:30:26.433Z,91.60
2023-06-11T05:32:53.319Z,91.80
2023-06-11T05:35:20.129Z,91.40
2023-06-11T05:37:46.739Z,91.50
2023-06-11T05:40:13.913Z,91.00
2023-06-11T05:42:40.530Z,91.20
2023-06-11T05:45:07.177Z,91.40
2023-06-11T05:47:34.340Z,90.90
2023-06-11T05:50:01.169Z,91.20
2023-06-11T05:52:27.677Z,90.90
2023-06-11T05:54:54.258Z,91.00
2023-06-11T05:57:20.914Z,91.10
2023-06-11T05:59:47.437Z,90.70
2023-06-11T06:02:14.239Z,90.80
2023-06-11T06:04:40.966Z,90.60
2023-06-11T06:07:07.776Z,90.50
2023-06-11T06:09:34.297Z,90.40
2023-06-11T06:12:00.988Z,90.40
2023-06-11T06:14:27.570Z,90.00
2023-06-11T06:16:54.231Z,89.90
2023-06-11T06:19:20.798Z,89.70
2023-06-11T06:21:47.401Z,89.40
2023-06-11T06:24:13.952Z,88.70
2023-06-11T06:26:41.998Z,88.30
2023-06-11T06:29:09.125Z,88.50
2023-06-11T06:31:37.963Z,88.80
2023-06-11T06:34:04.574Z,89.30
2023-06-11T06:36:31.947Z,88.30
2023-06-11T06:38:58.547Z,87.50
2023-06-11T06:41:25.115Z,89.00
2023-06-11T06:43:53.630Z,87.90
2023-06-11T06:46:20.651Z,87.60
2023-06-11T06:48:47.332Z,87.70
2023-06-11T06:51:13.960Z,87.80
2023-06-11T06:53:41.194Z,87.40
2023-06-11T06:56:07.769Z,87.20
2023-06-11T06:58:34.307Z,87.40
2023-06-11T07:01:01.008Z,87.80
2023-06-11T07:03:27.580Z,87.20
2023-06-11T07:05:54.246Z,86.20
2023-06-11T07:08:22.237Z,87.00
2023-06-11T07:10:48.789Z,85.30
2023-06-11T07:13:15.362Z,85.40
2023-06-11T07:15:41.939Z,85.30
2023-06-11T07:18:09.749Z,85.20
2023-06-11T07:20:36.554Z,85.30
2023-06-11T07:23:03.138Z,84.50
2023-06-11T07:25:29.706Z,84.40
2023-06-11T07:27:56.380Z,83.50
2023-06-11T07:30:23.048Z,83.90
2023-06-11T07:32:49.878Z,84.40
2023-06-11T07:35:16.496Z,84.10
2023-06-11T07:37:43.109Z,83.40
2023-06-11T07:40:09.774Z,82.50
2023-06-11T07:42:36.617Z,83.60
2023-06-11T07:45:03.376Z,83.80
2023-06-11T07:47:29.968Z,82.50
2023-06-11T07:49:56.605Z,83.00
2023-06-11T07:52:23.339Z,81.80
2023-06-11T07:54:49.875Z,81.70
2023-06-11T07:57:16.877Z,81.90
2023-06-11T07:59:44.497Z,81.10
2023-06-11T08:02:11.556Z,80.60
2023-06-11T08:04:38.266Z,80.90
2023-06-11T08:07:04.831Z,81.90
2023-06-11T08:09:31.594Z,83.70
2023-06-11T08:11:58.182Z,83.70
2023-06-11T08:14:24.853Z,83.10
2023-06-11T08:16:51.539Z,82.10
2023-06-11T08:19:18.385Z,81.70
2023-06-11T08:21:44.956Z,81.40
2023-06-11T08:24:12.034Z,81.60
2023-06-11T08:26:38.778Z,82.30
2023-06-11T08:29:05.440Z,80.80
2023-06-11T08:31:32.656Z,81.20
2023-06-11T08:33:59.234Z,83.50
2023-06-11T08:36:27.285Z,81.20
2023-06-11T08:38:53.845Z,80.50
2023-06-11T08:41:20.481Z,78.40
2023-06-11T08:43:47.361Z,75.70
2023-06-11T08:46:15.140Z,77.00
2023-06-11T08:48:41.699Z,76.20
2023-06-11T08:51:08.270Z,76.10
2023-06-11T08:53:34.855Z,75.30
2023-06-11T08:56:01.459Z,76.40
2023-06-11T08:58:28.058Z,76.90
2023-06-11T09:00:54.625Z,74.30
2023-06-11T09:03:21.441Z,75.50
2023-06-11T09:05:48.042Z,73.90
2023-06-11T09:08:14.621Z,71.60
2023-06-11T09:10:42.355Z,71.10
2023-06-11T09:13:08.891Z,72.00
2023-06-11T09:15:35.758Z,70.80
2023-06-11T09:18:02.403Z,71.30
2023-06-11T09:20:28.957Z,72.10
2023-06-11T09:22:57.100Z,70.60
2023-06-11T09:25:23.663Z,71.10
2023-06-11T09:27:50.270Z,68.70
2023-06-11T09:30:18.205Z,68.20
2023-06-11T09:32:46.241Z,70.70
2023-06-11T09:35:12.900Z,69.40
2023-06-11T09:37:39.459Z,66.80
2023-06-11T09:40:08.081Z,66.60
2023-06-11T09:42:34.944Z,67.10
2023-06-11T09:45:01.720Z,68.00
2023-06-11T09:47:28.480Z,66.60
2023-06-11T09:49:55.166Z,69.70
2023-06-11T09:52:21.781Z,69.60
2023-06-11T09:54:50.930Z,68.20
2023-06-11T09:57:17.888Z,68.00
2023-06-11T09:59:44.517Z,67.50
2023-06-11T10:02:11.112Z,67.50
2023-06-11T10:04:37.710Z,68.20
2023-06-11T10:07:04.370Z,67.50
2023-06-11T10:09:31.046Z,69.60
2023-06-11T10:11:57.801Z,66.40
2023-06-11T10:14:24.450Z,66.30
2023-06-11T10:16:51.226Z,66.60
2023-06-11T10:19:17.956Z,66.90
2023-06-11T10:21:52.553Z,68.60
2023-06-11T10:24:19.347Z,66.20
2023-06-11T10:26:48.074Z,65.90
2023-06-11T10:29:16.308Z,66.00
2023-06-11T10:31:45.259Z,65.50
2023-06-11T10:34:12.019Z,65.90
2023-06-11T10:36:38.937Z,65.40
2023-06-11T10:39:05.744Z,63.30
2023-06-11T10:41:32.358Z,65.70
2023-06-11T10:43:59.213Z,64.40
2023-06-11T10:46:32.093Z,67.60
2023-06-11T10:48:58.990Z,66.60
2023-06-11T10:51:25.561Z,66.00
2023-06-11T10:53:52.271Z,63.70
2023-06-11T10:56:18.910Z,66.10
2023-06-11T10:58:45.749Z,62.80
2023-06-11T11:01:12.731Z,62.50
2023-06-11T11:03:39.897Z,63.20
2023-06-11T11:06:06.697Z,65.10
2023-06-11T11:08:33.360Z,65.60
2023-06-11T11:11:03.284Z,62.40
2023-06-11T11:13:30.322Z,63.80
2023-06-11T11:15:59.490Z,62.70
2023-06-11T11:18:26.064Z,64.00
2023-06-11T11:20:56.073Z,65.70
2023-06-11T11:23:26.147Z,63.30
2023-06-11T11:25:53.307Z,63.30
2023-06-11T11:28:20.609Z,62.50
2023-06-11T11:30:51.016Z,63.70
2023-06-11T11:33:25.401Z,62.50
2023-06-11T11:35:52.259Z,63.20
2023-06-11T11:38:19.036Z,62.20
2023-06-11T11:40:45.806Z,63.90
2023-06-11T11:43:13.865Z,64.30
2023-06-11T11:45:41.407Z,62.10
2023-06-11T11:48:08.543Z,61.40
2023-06-11T11:50:38.095Z,61.90
2023-06-11T11:53:05.467Z,61.30
2023-06-11T11:55:32.686Z,62.70
2023-06-11T11:58:00.823Z,61.90
2023-06-11T12:00:27.584Z,63.00
2023-06-11T12:02:54.860Z,62.30
2023-06-11T12:05:23.269Z,62.80
2023-06-11T12:07:51.159Z,61.90
2023-06-11T12:10:19.751Z,60.60
2023-06-11T12:12:46.956Z,59.90
2023-06-11T12:15:14.771Z,60.80
2023-06-11T12:17:44.649Z,60.60
2023-06-11T12:20:12.830Z,62.70
2023-06-11T12:22:43.944Z,61.80
2023-06-11T12:25:11.769Z,63.60
2023-06-11T12:27:39.542Z,60.00
2023-06-11T12:30:06.568Z,60.00
2023-06-11T12:32:34.088Z,60.10
2023-06-11T12:35:02.025Z,62.20
2023-06-11T12:37:29.614Z,60.30
2023-06-11T12:39:57.241Z,58.60
2023-06-11T12:42:25.985Z,58.60
2023-06-11T12:44:53.507Z,59.70
2023-06-11T12:47:20.956Z,59.80
2023-06-11T12:49:48.250Z,61.20
2023-06-11T12:52:18.152Z,59.40
2023-06-11T12:54:49.428Z,59.70
2023-06-11T12:57:16.513Z,60.50
2023-06-11T12:59:43.580Z,61.00
2023-06-11T13:02:18.403Z,58.70
2023-06-11T13:04:50.477Z,58.60
2023-06-11T13:07:18.284Z,60.30
2023-06-11T13:09:45.554Z,58.60
2023-06-11T13:12:12.209Z,57.30
2023-06-11T13:14:38.899Z,57.10
2023-06-11T13:17:05.539Z,59.20
2023-06-11T13:19:32.197Z,57.60
2023-06-11T13:21:58.850Z,57.50
2023-06-11T13:27:33.158Z,58.30
2023-06-11T13:30:02.391Z,58.30
2023-06-11T13:32:29.364Z,58.80
2023-06-11T13:34:56.553Z,58.20
2023-06-11T13:37:24.573Z,57.30
2023-06-11T13:39:51.353Z,57.50
2023-06-11T13:42:18.118Z,55.80
2023-06-11T13:44:45.914Z,56.70
2023-06-11T13:47:13.383Z,57.90
2023-06-11T13:49:40.193Z,57.80
2023-06-11T13:52:07.137Z,57.00
2023-06-11T13:54:34.298Z,57.50
2023-06-11T13:57:01.364Z,58.30
2023-06-11T13:59:28.369Z,57.50
2023-06-11T14:01:56.221Z,56.50
2023-06-11T14:04:23.538Z,55.90
2023-06-11T14:06:50.243Z,58.00
2023-06-11T14:09:16.897Z,56.50
2023-06-11T14:11:43.517Z,56.90
2023-06-11T14:14:13.162Z,55.40
2023-06-11T14:16:40.601Z,55.70
2023-06-11T14:19:09.043Z,55.10
2023-06-11T14:21:36.357Z,55.50
2023-06-11T14:24:02.994Z,57.20
2023-06-11T14:26:29.752Z,56.50
2023-06-11T14:28:56.606Z,54.70
2023-06-11T14:31:23.466Z,55.10
2023-06-11T14:33:50.787Z,54.70
2023-06-11T14:36:17.475Z,55.80
2023-06-11T14:38:44.291Z,55.70
2023-06-11T14:41:12.040Z,56.50
2023-06-11T14:43:39.249Z,55.50
2023-06-11T14:46:06.014Z,54.00
2023-06-11T14:48:32.703Z,53.90
2023-06-11T14:50:59.472Z,54.80
2023-06-11T14:53:26.288Z,55.60
2023-06-11T14:55:52.927Z,55.30
2023-06-11T14:58:19.538Z,54.00
2023-06-11T15:00:46.221Z,55.30
2023-06-11T15:03:14.074Z,54.50
2023-06-11T15:05:41.143Z,54.70
2023-06-11T15:08:08.081Z,54.40
2023-06-11T15:10:34.971Z,54.90
2023-06-11T15:13:02.967Z,54.90
2023-06-11T15:15:29.729Z,55.10
2023-06-11T15:17:56.746Z,54.20
2023-06-11T15:20:23.658Z,53.70
2023-06-11T15:22:50.552Z,54.10
2023-06-11T15:25:17.163Z,53.40
2023-06-11T15:27:43.825Z,53.00
2023-06-11T15:30:10.749Z,52.20
2023-06-11T15:32:37.972Z,53.30
2023-06-11T15:35:04.658Z,52.60
2023-06-11T15:37:31.358Z,53.40
2023-06-11T15:39:58.035Z,51.30
2023-06-11T15:42:24.651Z,53.60
2023-06-11T15:44:51.356Z,52.20
2023-06-11T15:47:18.444Z,52.30
2023-06-11T15:49:45.413Z,51.50
2023-06-11T15:52:12.047Z,52.90
2023-06-11T15:54:38.830Z,51.90
2023-06-11T15:57:05.661Z,52.20
2023-06-11T15:59:32.379Z,52.00
2023-06-11T16:01:59.418Z,52.30
2023-06-11T16:04:26.866Z,51.90
2023-06-11T16:06:53.877Z,51.60
2023-06-11T16:09:20.521Z,51.90
2023-06-11T16:11:47.290Z,51.70
2023-06-11T16:14:15.959Z,51.80
2023-06-11T16:16:42.844Z,52.30
2023-06-11T16:19:09.670Z,51.40
2023-06-11T16:21:36.415Z,51.40
2023-06-11T16:24:03.178Z,50.50
2023-06-11T16:26:30.069Z,51.10
2023-06-11T16:28:56.729Z,52.10
2023-06-11T16:31:23.549Z,51.20
2023-06-11T16:33:58.423Z,50.50
2023-06-11T16:36:26.087Z,51.10
2023-06-11T16:38:52.702Z,51.90
2023-06-11T16:41:19.613Z,52.00
2023-06-11T16:43:46.481Z,52.30
2023-06-11T16:46:13.144Z,51.40
2023-06-11T16:48:39.911Z,51.50
2023-06-11T16:51:06.647Z,51.50
2023-06-11T16:53:33.450Z,49.30
2023-06-11T16:56:00.116Z,49.60
2023-06-11T16:58:27.267Z,49.70
2023-06-11T17:00:53.980Z,49.60
2023-06-11T17:03:20.793Z,50.10
2023-06-11T17:05:47.582Z,50.60
2023-06-11T17:08:14.360Z,50.00
2023-06-11T17:10:40.995Z,50.50
2023-06-11T17:13:07.779Z,50.50
2023-06-11T17:15:34.378Z,49.60
2023-06-11T17:18:01.359Z,50.60
2023-06-11T17:20:28.179Z,50.90
2023-06-11T17:22:54.901Z,50.90
2023-06-11T17:25:24.412Z,50.50
2023-06-11T17:27:51.414Z,50.60
2023-06-11T17:30:18.047Z,49.60
2023-06-11T17:32:45.114Z,49.80
2023-06-11T17:35:12.102Z,49.20
2023-06-11T17:37:39.484Z,49.60
2023-06-11T17:40:06.772Z,49.60
2023-06-11T17:42:34.278Z,49.60
2023-06-11T17:45:01.389Z,50.40
2023-06-11T17:47:28.234Z,48.90
2023-06-11T20:19:22.490Z,55.30
2023-06-11T20:21:49.410Z,55.30
2023-06-11T20:24:16.140Z,55.40
2023-06-11T20:26:44.052Z,55.40
2023-06-11T20:29:12.473Z,55.40
2023-06-11T20:31:39.102Z,55.60
